sensor_id;sensor_type;location;lat;lon;timestamp;pressure;altitude;pressure_sealevel;temperature;humidity
48527;BME280;34317;51.660;5.824;2023-04-01T00:01:29;99057.16;;;13.69;62.50
48527;BME280;34317;51.660;5.824;2023-04-01T00:03:57;99058.28;;;13.66;62.56
48527;BME280;34317;51.660;5.824;2023-04-01T00:06:24;99056.59;;;13.65;62.67
48527;BME280;34317;51.660;5.824;2023-04-01T00:08:51;99054.91;;;13.64;62.72
48527;BME280;34317;51.660;5.824;2023-04-01T00:11:21;99061.06;;;13.65;62.68
48527;BME280;34317;51.660;5.824;2023-04-01T00:13:48;99054.91;;;13.64;62.71
48527;BME280;34317;51.660;5.824;2023-04-01T00:16:16;99063.84;;;13.63;62.68
48527;BME280;34317;51.660;5.824;2023-04-01T00:18:48;99058.53;;;13.63;62.64
48527;BME280;34317;51.660;5.824;2023-04-01T00:21:17;99054.91;;;13.64;62.85
48527;BME280;34317;51.660;5.824;2023-04-01T00:23:44;99067.50;;;13.62;62.79
48527;BME280;34317;51.660;5.824;2023-04-01T00:26:11;99060.50;;;13.61;62.76
48527;BME280;34317;51.660;5.824;2023-04-01T00:28:40;99063.16;;;13.61;62.98
48527;BME280;34317;51.660;5.824;2023-04-01T00:31:09;99069.47;;;13.60;62.83
48527;BME280;34317;51.660;5.824;2023-04-01T00:33:38;99058.81;;;13.60;62.76
48527;BME280;34317;51.660;5.824;2023-04-01T00:36:10;99064.13;;;13.60;62.94
48527;BME280;34317;51.660;5.824;2023-04-01T00:38:38;99066.06;;;13.58;63.01
48527;BME280;34317;51.660;5.824;2023-04-01T00:41:05;99066.94;;;13.58;63.02
48527;BME280;34317;51.660;5.824;2023-04-01T00:43:33;99069.59;;;13.58;63.02
48527;BME280;34317;51.660;5.824;2023-04-01T00:46:00;99069.47;;;13.60;63.21
48527;BME280;34317;51.660;5.824;2023-04-01T00:48:34;99071.38;;;13.58;63.12
48527;BME280;34317;51.660;5.824;2023-04-01T00:51:08;99067.75;;;13.59;63.08
48527;BME280;34317;51.660;5.824;2023-04-01T00:53:41;99082.03;;;13.58;63.17
48527;BME280;34317;51.660;5.824;2023-04-01T00:56:16;99082.19;;;13.56;63.10
48527;BME280;34317;51.660;5.824;2023-04-01T00:58:49;99082.31;;;13.55;63.08
48527;BME280;34317;51.660;5.824;2023-04-01T01:01:19;99077.81;;;13.55;63.19
48527;BME280;34317;51.660;5.824;2023-04-01T01:03:47;99078.66;;;13.56;63.19
48527;BME280;34317;51.660;5.824;2023-04-01T01:09:12;99080.59;;;13.54;63.20
48527;BME280;34317;51.660;5.824;2023-04-01T01:11:45;99084.25;;;13.53;63.19
48527;BME280;34317;51.660;5.824;2023-04-01T01:16:53;99087.88;;;13.52;63.32
48527;BME280;34317;51.660;5.824;2023-04-01T01:22:20;99098.50;;;13.52;63.17
48527;BME280;34317;51.660;5.824;2023-04-01T01:25:14;99095.84;;;13.52;63.17
48527;BME280;34317;51.660;5.824;2023-04-01T01:27:51;99105.53;;;13.53;63.24
48527;BME280;34317;51.660;5.824;2023-04-01T01:30:44;99099.22;;;13.54;63.35
48527;BME280;34317;51.660;5.824;2023-04-01T01:33:50;99093.19;;;13.52;63.12
48527;BME280;34317;51.660;5.824;2023-04-01T01:36:15;99109.16;;;13.52;63.30
48527;BME280;34317;51.660;5.824;2023-04-01T01:38:44;99096.84;;;13.51;63.34
48527;BME280;34317;51.660;5.824;2023-04-01T01:41:13;99102.16;;;13.51;63.35
48527;BME280;34317;51.660;5.824;2023-04-01T01:43:46;99101.16;;;13.52;63.40
48527;BME280;34317;51.660;5.824;2023-04-01T01:46:19;99105.53;;;13.53;63.38
48527;BME280;34317;51.660;5.824;2023-04-01T01:48:49;99107.19;;;13.54;63.40
48527;BME280;34317;51.660;5.824;2023-04-01T01:51:20;99110.84;;;13.53;63.43
48527;BME280;34317;51.660;5.824;2023-04-01T01:53:48;99113.38;;;13.54;63.20
48527;BME280;34317;51.660;5.824;2023-04-01T01:56:18;99107.19;;;13.54;63.42
48527;BME280;34317;51.660;5.824;2023-04-01T01:58:52;99110.72;;;13.54;63.47
48527;BME280;34317;51.660;5.824;2023-04-01T02:01:24;99114.22;;;13.55;63.49
48527;BME280;34317;51.660;5.824;2023-04-01T02:03:56;99113.38;;;13.54;63.43
48527;BME280;34317;51.660;5.824;2023-04-01T02:06:29;99116.16;;;13.53;63.48
48527;BME280;34317;51.660;5.824;2023-04-01T02:09:00;99110.84;;;13.53;63.50
48527;BME280;34317;51.660;5.824;2023-04-01T02:11:32;99119.78;;;13.52;63.52
48527;BME280;34317;51.660;5.824;2023-04-01T02:14:05;99121.75;;;13.50;63.73
48527;BME280;34317;51.660;5.824;2023-04-01T02:16:46;99127.06;;;13.50;63.53
48527;BME280;34317;51.660;5.824;2023-04-01T02:19:17;99126.22;;;13.49;63.74
48527;BME280;34317;51.660;5.824;2023-04-01T02:21:53;99125.38;;;13.49;63.67
48527;BME280;34317;51.660;5.824;2023-04-01T02:24:23;99133.38;;;13.49;63.65
48527;BME280;34317;51.660;5.824;2023-04-01T02:26:51;99128.88;;;13.49;63.68
48527;BME280;34317;51.660;5.824;2023-04-01T02:29:21;99136.03;;;13.49;63.76
48527;BME280;34317;51.660;5.824;2023-04-01T02:31:50;99132.38;;;13.50;63.82
48527;BME280;34317;51.660;5.824;2023-04-01T02:34:19;99132.38;;;13.50;63.74
48527;BME280;34317;51.660;5.824;2023-04-01T02:36:47;99131.41;;;13.51;63.76
48527;BME280;34317;51.660;5.824;2023-04-01T02:39:15;99140.22;;;13.51;63.80
48527;BME280;34317;51.660;5.824;2023-04-01T02:41:44;99134.06;;;13.51;63.92
48527;BME280;34317;51.660;5.824;2023-04-01T02:44:13;99146.38;;;13.52;63.88
48527;BME280;34317;51.660;5.824;2023-04-01T02:46:42;99150.03;;;13.51;63.81
48527;BME280;34317;51.660;5.824;2023-04-01T02:49:10;99150.03;;;13.51;63.74
48527;BME280;34317;51.660;5.824;2023-04-01T02:51:37;99151.97;;;13.49;63.80
48527;BME280;34317;51.660;5.824;2023-04-01T02:54:04;99154.66;;;13.49;63.67
48527;BME280;34317;51.660;5.824;2023-04-01T02:56:32;99153.91;;;13.47;63.75
48527;BME280;34317;51.660;5.824;2023-04-01T02:58:59;99146.91;;;13.46;63.92
48527;BME280;34317;51.660;5.824;2023-04-01T03:01:26;99154.19;;;13.43;63.76
48527;BME280;34317;51.660;5.824;2023-04-01T03:03:53;99157.78;;;13.42;63.74
48527;BME280;34317;51.660;5.824;2023-04-01T03:06:20;99155.13;;;13.42;63.88
48527;BME280;34317;51.660;5.824;2023-04-01T03:08:48;99155.25;;;13.41;63.71
48527;BME280;34317;51.660;5.824;2023-04-01T03:11:15;99161.56;;;13.40;63.64
48527;BME280;34317;51.660;5.824;2023-04-01T03:13:42;99161.69;;;13.38;63.75
48527;BME280;34317;51.660;5.824;2023-04-01T03:16:10;99168.00;;;13.37;63.73
48527;BME280;34317;51.660;5.824;2023-04-01T03:18:37;99163.63;;;13.36;63.80
48527;BME280;34317;51.660;5.824;2023-04-01T03:21:18;99167.25;;;13.35;63.62
48527;BME280;34317;51.660;5.824;2023-04-01T03:23:46;99167.25;;;13.35;63.64
48527;BME280;34317;51.660;5.824;2023-04-01T03:26:13;99162.22;;;13.32;63.81
48527;BME280;34317;51.660;5.824;2023-04-01T03:28:41;99169.19;;;13.33;63.80
48527;BME280;34317;51.660;5.824;2023-04-01T03:31:08;99167.53;;;13.32;63.89
48527;BME280;34317;51.660;5.824;2023-04-01T03:33:42;99167.53;;;13.32;63.69
48527;BME280;34317;51.660;5.824;2023-04-01T03:36:10;99174.53;;;13.33;63.87
48527;BME280;34317;51.660;5.824;2023-04-01T03:38:40;99178.28;;;13.31;63.93
48527;BME280;34317;51.660;5.824;2023-04-01T03:41:12;99174.78;;;13.30;63.90
48527;BME280;34317;51.660;5.824;2023-04-01T03:43:41;99168.56;;;13.30;63.91
48527;BME280;34317;51.660;5.824;2023-04-01T03:46:10;99170.31;;;13.31;64.00
48527;BME280;34317;51.660;5.824;2023-04-01T03:48:37;99165.09;;;13.29;63.97
48527;BME280;34317;51.660;5.824;2023-04-01T03:51:08;99169.69;;;13.27;64.09
48527;BME280;34317;51.660;5.824;2023-04-01T03:53:36;99169.69;;;13.27;64.06
48527;BME280;34317;51.660;5.824;2023-04-01T03:56:06;99170.69;;;13.26;64.10
48527;BME280;34317;51.660;5.824;2023-04-01T03:58:36;99171.63;;;13.25;63.98
48527;BME280;34317;51.660;5.824;2023-04-01T04:01:20;99184.22;;;13.23;64.03
48527;BME280;34317;51.660;5.824;2023-04-01T04:03:50;99178.91;;;13.23;64.13
48527;BME280;34317;51.660;5.824;2023-04-01T04:06:19;99175.53;;;13.21;63.98
48527;BME280;34317;51.660;5.824;2023-04-01T04:08:47;99184.44;;;13.20;64.07
48527;BME280;34317;51.660;5.824;2023-04-01T04:11:15;99183.50;;;13.21;64.09
48527;BME280;34317;51.660;5.824;2023-04-01T04:13:43;99192.44;;;13.20;64.24
48527;BME280;34317;51.660;5.824;2023-04-01T04:16:11;99189.78;;;13.20;64.18
48527;BME280;34317;51.660;5.824;2023-04-01T04:18:43;99203.94;;;13.20;64.10
48527;BME280;34317;51.660;5.824;2023-04-01T04:21:14;99195.09;;;13.20;64.22
48527;BME280;34317;51.660;5.824;2023-04-01T04:23:42;99196.06;;;13.19;64.03
48527;BME280;34317;51.660;5.824;2023-04-01T04:26:13;99202.34;;;13.18;64.19
48527;BME280;34317;51.660;5.824;2023-04-01T04:28:46;99204.06;;;13.19;64.04
48527;BME280;34317;51.660;5.824;2023-04-01T04:31:22;99199.81;;;13.16;64.19
48527;BME280;34317;51.660;5.824;2023-04-01T04:33:52;99211.31;;;13.17;64.00
48527;BME280;34317;51.660;5.824;2023-04-01T04:36:21;99206.00;;;13.17;64.06
48527;BME280;34317;51.660;5.824;2023-04-01T04:38:50;99215.91;;;13.15;63.93
48527;BME280;34317;51.660;5.824;2023-04-01T04:41:18;99202.03;;;13.11;64.18
48527;BME280;34317;51.660;5.824;2023-04-01T04:43:53;99206.47;;;13.11;64.29
48527;BME280;34317;51.660;5.824;2023-04-01T04:46:22;99211.78;;;13.11;64.08
48527;BME280;34317;51.660;5.824;2023-04-01T04:48:56;99207.34;;;13.11;64.15
48527;BME280;34317;51.660;5.824;2023-04-01T04:51:23;99210.97;;;13.10;64.07
48527;BME280;34317;51.660;5.824;2023-04-01T04:53:50;99220.75;;;13.10;64.19
48527;BME280;34317;51.660;5.824;2023-04-01T04:56:22;99220.75;;;13.10;64.08
48527;BME280;34317;51.660;5.824;2023-04-01T04:58:59;99228.84;;;13.08;63.97
48527;BME280;34317;51.660;5.824;2023-04-01T05:01:39;99225.34;;;13.08;64.04
48527;BME280;34317;51.660;5.824;2023-04-01T05:04:07;99228.00;;;13.08;64.14
48527;BME280;34317;51.660;5.824;2023-04-01T05:06:34;99234.41;;;13.05;64.08
48527;BME280;34317;51.660;5.824;2023-04-01T05:09:01;99230.19;;;13.02;64.30
48527;BME280;34317;51.660;5.824;2023-04-01T05:11:29;99235.50;;;13.02;64.13
48527;BME280;34317;51.660;5.824;2023-04-01T05:13:56;99235.50;;;13.02;64.17
48527;BME280;34317;51.660;5.824;2023-04-01T05:16:23;99242.75;;;13.00;64.18
48527;BME280;34317;51.660;5.824;2023-04-01T05:18:51;99246.38;;;12.99;64.15
48527;BME280;34317;51.660;5.824;2023-04-01T05:21:18;99248.06;;;13.00;64.23
48527;BME280;34317;51.660;5.824;2023-04-01T05:23:46;99241.94;;;13.00;64.30
48527;BME280;34317;51.660;5.824;2023-04-01T05:26:14;99251.56;;;13.01;64.26
48527;BME280;34317;51.660;5.824;2023-04-01T05:28:42;99251.69;;;12.99;64.05
48527;BME280;34317;51.660;5.824;2023-04-01T05:31:09;99257.00;;;12.99;64.15
48527;BME280;34317;51.660;5.824;2023-04-01T05:33:42;99257.00;;;12.99;64.17
48527;BME280;34317;51.660;5.824;2023-04-01T05:36:14;99268.63;;;12.98;64.07
48527;BME280;34317;51.660;5.824;2023-04-01T05:38:43;99265.97;;;12.98;64.22
48527;BME280;34317;51.660;5.824;2023-04-01T05:41:14;99267.63;;;12.99;64.14
48527;BME280;34317;51.660;5.824;2023-04-01T05:43:45;99267.63;;;12.99;64.03
48527;BME280;34317;51.660;5.824;2023-04-01T05:46:32;99271.28;;;12.98;64.15
48527;BME280;34317;51.660;5.824;2023-04-01T05:49:09;99274.88;;;12.97;64.17
48527;BME280;34317;51.660;5.824;2023-04-01T05:51:37;99280.19;;;12.97;64.25
48527;BME280;34317;51.660;5.824;2023-04-01T05:54:05;99288.06;;;12.99;64.30
48527;BME280;34317;51.660;5.824;2023-04-01T05:56:33;99288.06;;;12.99;64.10
48527;BME280;34317;51.660;5.824;2023-04-01T05:59:01;99287.22;;;12.98;64.22
48527;BME280;34317;51.660;5.824;2023-04-01T06:01:28;99287.22;;;12.98;64.35
48527;BME280;34317;51.660;5.824;2023-04-01T06:03:55;99294.22;;;12.99;64.51
48527;BME280;34317;51.660;5.824;2023-04-01T06:06:25;99297.59;;;13.01;64.37
48527;BME280;34317;51.660;5.824;2023-04-01T06:09:06;99304.59;;;13.02;64.32
48527;BME280;34317;51.660;5.824;2023-04-01T06:11:44;99306.31;;;13.03;64.32
48527;BME280;34317;51.660;5.824;2023-04-01T06:14:25;99302.66;;;13.04;64.40
48527;BME280;34317;51.660;5.824;2023-04-01T06:17:26;99311.63;;;13.03;64.32
48527;BME280;34317;51.660;5.824;2023-04-01T06:23:01;99325.63;;;13.05;64.50
48527;BME280;34317;51.660;5.824;2023-04-01T06:28:38;99330.69;;;13.09;64.51
48527;BME280;34317;51.660;5.824;2023-04-01T06:54:45;99359.69;;;13.23;64.70
48527;BME280;34317;51.660;5.824;2023-04-01T06:57:53;99364.75;;;13.26;64.71
48527;BME280;34317;51.660;5.824;2023-04-01T07:00:40;99368.16;;;13.28;64.68
48527;BME280;34317;51.660;5.824;2023-04-01T07:05:51;99378.31;;;13.34;64.73
48527;BME280;34317;51.660;5.824;2023-04-01T07:08:23;99383.41;;;13.37;64.78
48527;BME280;34317;51.660;5.824;2023-04-01T07:11:02;99392.81;;;13.41;64.82
48527;BME280;34317;51.660;5.824;2023-04-01T07:13:57;99389.88;;;13.44;64.64
48527;BME280;34317;51.660;5.824;2023-04-01T07:19:09;99392.06;;;13.51;64.68
48527;BME280;34317;51.660;5.824;2023-04-01T07:22:12;99392.78;;;13.53;64.78
48527;BME280;34317;51.660;5.824;2023-04-01T07:25:27;99405.09;;;13.54;64.59
48527;BME280;34317;51.660;5.824;2023-04-01T07:28:16;99402.31;;;13.55;64.70
48527;BME280;34317;51.660;5.824;2023-04-01T07:34:12;99418.91;;;13.59;64.53
48527;BME280;34317;51.660;5.824;2023-04-01T07:37:13;99418.66;;;13.62;64.65
48527;BME280;34317;51.660;5.824;2023-04-01T07:42:55;99429.63;;;13.69;64.64
48527;BME280;34317;51.660;5.824;2023-04-01T07:45:35;99427.56;;;13.72;64.50
48527;BME280;34317;51.660;5.824;2023-04-01T07:51:48;99431.66;;;13.76;64.60
48527;BME280;34317;51.660;5.824;2023-04-01T08:04:55;99462.63;;;13.89;64.32
48527;BME280;34317;51.660;5.824;2023-04-01T08:07:36;99461.63;;;13.90;64.47
48527;BME280;34317;51.660;5.824;2023-04-01T08:10:51;99468.66;;;13.91;64.30
48527;BME280;34317;51.660;5.824;2023-04-01T08:17:06;99467.22;;;13.87;64.23
48527;BME280;34317;51.660;5.824;2023-04-01T08:20:05;99475.22;;;13.87;64.15
48527;BME280;34317;51.660;5.824;2023-04-01T08:22:45;99474.50;;;13.85;64.29
48527;BME280;34317;51.660;5.824;2023-04-01T08:25:28;99486.94;;;13.84;64.10
48527;BME280;34317;51.660;5.824;2023-04-01T08:28:01;99492.25;;;13.84;64.30
48527;BME280;34317;51.660;5.824;2023-04-01T08:30:41;99495.06;;;13.82;64.40
48527;BME280;34317;51.660;5.824;2023-04-01T08:33:15;99501.22;;;13.83;64.25
48527;BME280;34317;51.660;5.824;2023-04-01T08:35:56;99505.72;;;13.82;64.31
48527;BME280;34317;51.660;5.824;2023-04-01T08:53:39;99523.59;;;13.80;64.33
48527;BME280;34317;51.660;5.824;2023-04-01T08:58:56;99537.88;;;13.79;64.62
48527;BME280;34317;51.660;5.824;2023-04-01T09:11:03;99553.84;;;13.79;64.46
48527;BME280;34317;51.660;5.824;2023-04-01T09:22:25;99576.59;;;13.83;64.60
48527;BME280;34317;51.660;5.824;2023-04-01T09:25:09;99576.47;;;13.85;64.63
48527;BME280;34317;51.660;5.824;2023-04-01T09:30:33;99579.72;;;13.89;64.54
48527;BME280;34317;51.660;5.824;2023-04-01T09:33:22;99583.13;;;13.91;64.49
48527;BME280;34317;51.660;5.824;2023-04-01T09:36:02;99588.44;;;13.91;64.54
48527;BME280;34317;51.660;5.824;2023-04-01T09:41:11;99592.06;;;13.90;64.33
48527;BME280;34317;51.660;5.824;2023-04-01T09:44:00;99596.44;;;13.91;64.44
48527;BME280;34317;51.660;5.824;2023-04-01T09:52:15;99613.13;;;13.93;64.36
48527;BME280;34317;51.660;5.824;2023-04-01T10:21:01;99637.56;;;14.20;64.60
48527;BME280;34317;51.660;5.824;2023-04-01T10:26:36;99637.06;;;14.27;64.59
48527;BME280;34317;51.660;5.824;2023-04-01T10:36:30;99647.72;;;14.27;64.51
48527;BME280;34317;51.660;5.824;2023-04-01T10:39:33;99656.44;;;14.29;64.28
48527;BME280;34317;51.660;5.824;2023-04-01T10:42:25;99651.22;;;14.27;64.42
48527;BME280;34317;51.660;5.824;2023-04-01T10:54:25;99660.31;;;14.25;64.23
48527;BME280;34317;51.660;5.824;2023-04-01T10:57:32;99662.00;;;14.26;64.41
48527;BME280;34317;51.660;5.824;2023-04-01T11:03:46;99674.13;;;14.30;64.54
48527;BME280;34317;51.660;5.824;2023-04-01T11:29:58;99696.63;;;14.59;64.40
48527;BME280;34317;51.660;5.824;2023-04-01T11:41:36;99716.75;;;14.75;64.21
48527;BME280;34317;51.660;5.824;2023-04-01T11:44:26;99709.47;;;14.77;64.39
48527;BME280;34317;51.660;5.824;2023-04-01T12:04:26;99740.94;;;14.83;64.14
48527;BME280;34317;51.660;5.824;2023-04-01T12:07:27;99740.94;;;14.83;64.31
48527;BME280;34317;51.660;5.824;2023-04-01T12:10:12;99748.81;;;14.85;64.33
48527;BME280;34317;51.660;5.824;2023-04-01T12:13:07;99751.59;;;14.83;64.07
48527;BME280;34317;51.660;5.824;2023-04-01T12:18:25;99752.84;;;14.79;64.12
48527;BME280;34317;51.660;5.824;2023-04-01T12:29:29;99765.41;;;14.88;64.39
48527;BME280;34317;51.660;5.824;2023-04-01T12:40:15;99777.72;;;15.12;64.48
48527;BME280;34317;51.660;5.824;2023-04-01T12:45:31;99782.56;;;15.18;64.39
48527;BME280;34317;51.660;5.824;2023-04-01T12:51:11;99791.03;;;15.23;64.17
48527;BME280;34317;51.660;5.824;2023-04-01T12:57:01;99794.94;;;15.19;63.43
48527;BME280;34317;51.660;5.824;2023-04-01T13:02:18;99803.66;;;15.21;63.71
48527;BME280;34317;51.660;5.824;2023-04-01T13:07:39;99803.16;;;15.27;64.13
48527;BME280;34317;51.660;5.824;2023-04-01T13:12:59;99811.41;;;15.35;64.05
48527;BME280;34317;51.660;5.824;2023-04-01T13:18:36;99819.84;;;15.41;64.11
48527;BME280;34317;51.660;5.824;2023-04-01T13:23:57;99828.34;;;15.34;63.66
48527;BME280;34317;51.660;5.824;2023-04-01T13:32:32;99837.97;;;15.26;63.65
48527;BME280;34317;51.660;5.824;2023-04-01T13:43:22;99845.13;;;15.14;63.80
48527;BME280;34317;51.660;5.824;2023-04-01T14:00:19;99858.13;;;14.96;63.78
48527;BME280;34317;51.660;5.824;2023-04-01T14:03:14;99867.91;;;14.95;63.79
48527;BME280;34317;51.660;5.824;2023-04-01T14:06:06;99862.84;;;14.92;63.89
48527;BME280;34317;51.660;5.824;2023-04-01T14:08:45;99871.06;;;14.89;63.76
48527;BME280;34317;51.660;5.824;2023-04-01T14:12:06;99879.34;;;14.86;63.72
48527;BME280;34317;51.660;5.824;2023-04-01T14:34:18;99903.31;;;14.75;64.08
48527;BME280;34317;51.660;5.824;2023-04-01T14:36:53;99908.66;;;14.75;63.98
48527;BME280;34317;51.660;5.824;2023-04-01T14:39:38;99910.44;;;14.74;64.33
48527;BME280;34317;51.660;5.824;2023-04-01T14:42:38;99908.66;;;14.75;64.00
48527;BME280;34317;51.660;5.824;2023-04-01T14:48:30;99913.97;;;14.75;64.34
48527;BME280;34317;51.660;5.824;2023-04-01T14:51:09;99911.31;;;14.75;64.25
48527;BME280;34317;51.660;5.824;2023-04-01T14:53:51;99922.69;;;14.77;64.22
48527;BME280;34317;51.660;5.824;2023-04-01T14:56:36;99928.03;;;14.77;64.09
48527;BME280;34317;51.660;5.824;2023-04-01T14:59:09;99931.66;;;14.76;64.28
48527;BME280;34317;51.660;5.824;2023-04-01T15:15:49;99948.47;;;14.76;64.32
48527;BME280;34317;51.660;5.824;2023-04-01T15:18:41;99947.41;;;14.79;64.06
48527;BME280;34317;51.660;5.824;2023-04-01T15:35:21;99967.06;;;14.89;64.25
48527;BME280;34317;51.660;5.824;2023-04-01T15:37:56;99974.31;;;14.87;64.23
48527;BME280;34317;51.660;5.824;2023-04-01T15:40:29;99979.78;;;14.86;64.04
48527;BME280;34317;51.660;5.824;2023-04-01T15:43:03;99980.66;;;14.86;64.36
48527;BME280;34317;51.660;5.824;2023-04-01T15:48:39;99986.19;;;14.83;64.08
48527;BME280;34317;51.660;5.824;2023-04-01T15:56:36;99995.63;;;14.76;64.14
48527;BME280;34317;51.660;5.824;2023-04-01T16:01:59;100010.16;;;14.72;64.06
48527;BME280;34317;51.660;5.824;2023-04-01T16:07:27;100017.63;;;14.67;64.22
48527;BME280;34317;51.660;5.824;2023-04-01T16:12:57;100021.63;;;14.61;64.24
48527;BME280;34317;51.660;5.824;2023-04-01T16:15:47;100026.31;;;14.57;64.24
48527;BME280;34317;51.660;5.824;2023-04-01T16:18:40;100029.00;;;14.57;64.32
48527;BME280;34317;51.660;5.824;2023-04-01T16:21:34;100037.94;;;14.56;64.36
48527;BME280;34317;51.660;5.824;2023-04-01T16:24:46;100029.22;;;14.54;64.40
48527;BME280;34317;51.660;5.824;2023-04-01T16:29:55;100039.88;;;14.54;64.51
48527;BME280;34317;51.660;5.824;2023-04-01T16:32:37;100038.16;;;14.53;64.46
48527;BME280;34317;51.660;5.824;2023-04-01T16:35:31;100043.47;;;14.53;64.45
48527;BME280;34317;51.660;5.824;2023-04-01T16:43:35;100064.78;;;14.53;64.45
48527;BME280;34317;51.660;5.824;2023-04-01T16:46:14;100070.13;;;14.53;64.60
48527;BME280;34317;51.660;5.824;2023-04-01T16:54:41;100086.13;;;14.53;64.69
48527;BME280;34317;51.660;5.824;2023-04-01T17:02:17;100101.03;;;14.56;64.83
48527;BME280;34317;51.660;5.824;2023-04-01T17:05:07;100105.50;;;14.55;64.46
48527;BME280;34317;51.660;5.824;2023-04-01T17:07:59;100107.22;;;14.56;64.52
48527;BME280;34317;51.660;5.824;2023-04-01T17:16:07;100130.25;;;14.57;64.88
48527;BME280;34317;51.660;5.824;2023-04-01T17:27:40;100149.13;;;14.54;64.54
48527;BME280;34317;51.660;5.824;2023-04-01T17:30:33;100153.72;;;14.52;64.32
48527;BME280;34317;51.660;5.824;2023-04-01T17:36:08;100164.78;;;14.46;64.45
48527;BME280;34317;51.660;5.824;2023-04-01T17:49:39;100198.28;;;14.37;64.54
48527;BME280;34317;51.660;5.824;2023-04-01T17:52:33;100203.00;;;14.34;64.54
48527;BME280;34317;51.660;5.824;2023-04-01T17:57:52;100222.81;;;14.30;64.61
48527;BME280;34317;51.660;5.824;2023-04-01T18:00:50;100224.22;;;14.23;64.37
48527;BME280;34317;51.660;5.824;2023-04-01T18:03:26;100234.31;;;14.17;64.33
48527;BME280;34317;51.660;5.824;2023-04-01T18:08:56;100244.31;;;14.01;64.28
48527;BME280;34317;51.660;5.824;2023-04-01T18:14:23;100253.06;;;13.90;64.43
48527;BME280;34317;51.660;5.824;2023-04-01T18:19:56;100277.75;;;13.79;64.42
48527;BME280;34317;51.660;5.824;2023-04-01T18:22:34;100278.81;;;13.77;64.53
48527;BME280;34317;51.660;5.824;2023-04-01T18:25:18;100291.34;;;13.75;64.64
48527;BME280;34317;51.660;5.824;2023-04-01T18:27:50;100292.22;;;13.75;64.95
48527;BME280;34317;51.660;5.824;2023-04-01T18:30:29;100304.78;;;13.73;64.82
48527;BME280;34317;51.660;5.824;2023-04-01T18:33:18;100309.47;;;13.70;64.64
48527;BME280;34317;51.660;5.824;2023-04-01T18:35:50;100321.13;;;13.67;64.81
48527;BME280;34317;51.660;5.824;2023-04-01T18:38:31;100321.38;;;13.64;64.68
48527;BME280;34317;51.660;5.824;2023-04-01T18:41:14;100333.16;;;13.60;64.62
48527;BME280;34317;51.660;5.824;2023-04-01T18:46:39;100352.41;;;13.51;64.52
48527;BME280;34317;51.660;5.824;2023-04-01T18:49:33;100356.19;;;13.47;64.42
48527;BME280;34317;51.660;5.824;2023-04-01T18:52:34;100361.72;;;13.43;64.58
48527;BME280;34317;51.660;5.824;2023-04-01T18:57:56;100366.47;;;13.38;64.64
48527;BME280;34317;51.660;5.824;2023-04-01T19:00:33;100376.38;;;13.36;64.74
48527;BME280;34317;51.660;5.824;2023-04-01T19:05:45;100396.28;;;13.29;64.58
48527;BME280;34317;51.660;5.824;2023-04-01T19:08:30;100401.81;;;13.26;64.56
48527;BME280;34317;51.660;5.824;2023-04-01T19:11:11;100405.41;;;13.25;64.55
48527;BME280;34317;51.660;5.824;2023-04-01T19:19:07;100425.56;;;13.15;64.60
48527;BME280;34317;51.660;5.824;2023-04-01T19:34:57;100455.19;;;12.94;64.49
48527;BME280;34317;51.660;5.824;2023-04-01T19:37:40;100453.66;;;12.90;64.63
48527;BME280;34317;51.660;5.824;2023-04-01T19:43:13;100470.72;;;12.86;64.60
48527;BME280;34317;51.660;5.824;2023-04-01T19:45:55;100493.13;;;12.82;64.56
48527;BME280;34317;51.660;5.824;2023-04-01T19:56:22;100493.00;;;12.69;64.51
48527;BME280;34317;51.660;5.824;2023-04-01T19:58:54;100499.38;;;12.66;64.58
48527;BME280;34317;51.660;5.824;2023-04-01T20:01:57;100504.19;;;12.60;64.53
48527;BME280;34317;51.660;5.824;2023-04-01T20:04:38;100505.41;;;12.54;64.62
48527;BME280;34317;51.660;5.824;2023-04-01T20:07:17;100515.25;;;12.52;64.75
48527;BME280;34317;51.660;5.824;2023-04-01T20:10:16;100525.19;;;12.49;64.70
48527;BME280;34317;51.660;5.824;2023-04-01T20:15:57;100541.41;;;12.44;64.95
48527;BME280;34317;51.660;5.824;2023-04-01T20:21:06;100554.69;;;12.44;64.92
48527;BME280;34317;51.660;5.824;2023-04-01T20:23:47;100553.94;;;12.42;64.71
48527;BME280;34317;51.660;5.824;2023-04-01T20:26:26;100563.88;;;12.38;64.83
48527;BME280;34317;51.660;5.824;2023-04-01T20:29:47;100570.22;;;12.36;64.80
48527;BME280;34317;51.660;5.824;2023-04-01T20:32:49;100578.44;;;12.31;64.69
48527;BME280;34317;51.660;5.824;2023-04-01T20:38:12;100589.34;;;12.26;64.71
48527;BME280;34317;51.660;5.824;2023-04-01T20:40:51;100593.88;;;12.24;64.68
48527;BME280;34317;51.660;5.824;2023-04-01T20:46:27;100600.19;;;12.22;64.61
48527;BME280;34317;51.660;5.824;2023-04-01T20:51:55;100618.88;;;12.20;64.64
48527;BME280;34317;51.660;5.824;2023-04-01T21:00:02;100633.25;;;12.16;64.29
48527;BME280;34317;51.660;5.824;2023-04-01T21:02:42;100637.03;;;12.12;64.52
48527;BME280;34317;51.660;5.824;2023-04-01T21:16:39;100662.53;;;11.99;64.32
48527;BME280;34317;51.660;5.824;2023-04-01T21:19:20;100667.84;;;11.99;64.25
48527;BME280;34317;51.660;5.824;2023-04-01T21:27:59;100677.91;;;11.92;64.16
48527;BME280;34317;51.660;5.824;2023-04-01T21:33:34;100703.03;;;11.85;64.29
48527;BME280;34317;51.660;5.824;2023-04-01T21:36:25;100704.94;;;11.83;64.28
48527;BME280;34317;51.660;5.824;2023-04-01T21:41:53;100721.84;;;11.80;64.27
48527;BME280;34317;51.660;5.824;2023-04-01T21:55:56;100754.47;;;11.65;64.05
48527;BME280;34317;51.660;5.824;2023-04-01T22:01:40;100769.75;;;11.60;63.70
48527;BME280;34317;51.660;5.824;2023-04-01T22:07:34;100784.25;;;11.53;63.92
48527;BME280;34317;51.660;5.824;2023-04-01T22:10:27;100794.97;;;11.51;64.16
48527;BME280;34317;51.660;5.824;2023-04-01T22:13:20;100798.63;;;11.48;63.96
48527;BME280;34317;51.660;5.824;2023-04-01T22:16:17;100796.13;;;11.45;63.80
48527;BME280;34317;51.660;5.824;2023-04-01T22:18:57;100805.09;;;11.43;63.60